Latest Weather Observations for Toolara

IDQ60801

Issued at 2:05 am EST Saturday 22 November 2014 (issued every 30 minutes, with the page automatically refreshed every 10 minutes)

About weather observations | Map of weather stations | Latest weather observations for QLD | Other Formats
Station Details ID: 040555 Name: TOOLARA (KELLY) Lat: -25.97 Lon: 152.86 Height: 143.0 m
Data from the previous 72 hours. | See also: Recent months at Toolara
Date/Time
EST
Temp
°C
App
Temp
°C
Dew
Point
Rel
Hum
%
Delta-T
°C
Wind Press
QNH
hPa
Press
MSL
hPa
Rain
since 9 am
mm
Dir
 
Spd
km/h
Gust
km/h
Spd
kts
Gust
kts
22/02:00am 22.4 24.9 22.4 100 0.0 - 13 17 7 9 - - -
22/01:30am 22.4 25.6 22.4 100 0.0 - 9 13 5 7 - - -
22/01:00am 22.6 - 22.4 99 0.1 - - - - - - - -
22/12:30am 22.4 - 22.2 99 0.1 - - - - - - - -
22/12:00am 22.6 - 22.1 97 0.3 - - - - - - - -
 
Date/Time
EST
Temp
°C
App
Temp
°C
Dew
Point
Rel
Hum
%
Delta-T
°C
Wind Press
QNH
hPa
Press
MSL
hPa
Rain
since 9 am
mm
Dir
 
Spd
km/h
Gust
km/h
Spd
kts
Gust
kts
21/11:30pm 22.7 25.6 21.7 94 0.7 - 9 11 5 6 - - -
21/11:00pm 22.9 - 21.5 92 0.9 - - - - - - - -
21/10:30pm 23.0 - 21.4 91 1.1 - - - - - - - -
21/10:00pm 23.0 - 21.1 89 1.3 - - - - - - - -
21/09:30pm 23.2 - 20.9 87 1.5 - - - - - - - -
21/09:00pm 23.3 - 20.6 85 1.8 - - - - - - - 0.0
21/08:30pm 23.4 - 20.3 83 2.0 - - - - - - - -
21/08:00pm 23.7 - 20.0 80 2.4 - - - - - - - -
21/07:30pm 24.1 - 20.0 78 2.7 - - - - - - - -
21/07:00pm 24.5 - 20.2 77 2.8 - - - - - - - -
21/06:30pm 25.1 - 20.1 74 3.3 - - - - - - - -
21/06:00pm 25.8 - 20.1 71 3.7 - - - - - - - -
21/05:30pm 26.5 - 19.9 67 4.3 - - - - - - - -
21/05:00pm 27.2 - 19.8 64 4.8 - - - - - - - -
21/04:30pm 28.0 - 20.0 61 5.3 - - - - - - - -
21/04:00pm 28.3 - 20.1 61 5.4 - - - - - - - -
21/03:30pm 29.6 - 20.7 58 5.9 - - - - - - - -
21/03:00pm 29.7 - 21.1 60 5.8 - - - - - - - 0.0
21/02:30pm 30.3 - 21.7 60 5.8 - - - - - - - -
21/02:00pm 30.0 - 21.1 59 6.0 - - - - - - - -
21/01:30pm 29.9 - 20.7 57 6.1 - - - - - - - -
21/01:00pm 29.8 - 20.6 57 6.1 - - - - - - - -
21/12:30pm 30.0 - 20.8 57 6.1 - - - - - - - -
21/12:00pm 31.0 - 22.0 58 6.1 - - - - - - - -
21/11:30am 31.0 - 22.9 62 5.6 - - - - - - - -
21/11:00am 29.7 - 21.6 61 5.5 - - - - - - - -
21/10:30am 28.9 - 22.2 67 4.6 - - - - - - - -
21/10:00am 29.1 - 23.1 70 4.1 - - - - - - - -
21/09:30am 26.8 - 21.3 72 3.7 - - - - - - - -
21/09:00am 28.4 - 22.6 71 4.0 - - - - - - - 0.0
21/08:30am 27.0 - 23.5 81 2.4 - - - - - - - -
21/08:00am 26.6 - 24.8 90 1.3 - - - - - - - -
21/07:30am 23.4 - 23.4 100 0.0 - - - - - - - -
21/07:00am 23.6 29.2 23.6 100 0.0 CALM 0 4 0 2 - - -
21/06:30am 22.8 - 22.8 100 0.0 - - - - - - - -
21/06:00am 22.2 25.3 22.2 100 0.0 - 9 13 5 7 - - -
21/05:30am 21.3 - 21.3 100 0.0 - - - - - - - -
21/05:00am 21.1 - 21.1 100 0.0 - - - - - - - -
21/04:30am 21.2 - 21.2 100 0.0 - - - - - - - -
21/04:00am 21.3 - 21.3 100 0.0 - - - - - - - -
21/03:30am 21.2 - 21.2 100 0.0 - - - - - - - -
21/03:00am 21.4 - 21.4 100 0.0 - - - - - - - 0.0
21/02:30am 21.4 - 21.4 100 0.0 - - - - - - - -
21/02:00am 21.3 - 21.3 100 0.0 - - - - - - - -
21/01:30am 21.2 - 21.2 100 0.0 - - - - - - - -
21/01:00am 21.3 - 21.3 100 0.0 - - - - - - - -
21/12:30am 21.5 - 21.5 100 0.0 - - - - - - - -
21/12:00am 21.5 - 21.5 100 0.0 - - - - - - - -
 
Date/Time
EST
Temp
°C
App
Temp
°C
Dew
Point
Rel
Hum
%
Delta-T
°C
Wind Press
QNH
hPa
Press
MSL
hPa
Rain
since 9 am
mm
Dir
 
Spd
km/h
Gust
km/h
Spd
kts
Gust
kts
20/11:30pm 21.6 - 21.6 100 0.0 - - - - - - - -
20/11:00pm 21.6 - 21.6 100 0.0 - - - - - - - -
20/10:30pm 21.8 - 21.8 100 0.0 - - - - - - - -
20/10:00pm 21.9 - 21.9 100 0.0 - - - - - - - -
20/09:30pm 22.1 - 21.9 99 0.1 - - - - - - - -
20/09:00pm 22.2 - 22.0 99 0.1 - - - - - - - 0.0
20/08:30pm 22.4 - 21.9 97 0.3 - - - - - - - -
20/08:00pm 22.3 - 21.5 95 0.5 - - - - - - - -
20/07:30pm 22.5 - 21.1 92 0.9 - - - - - - - -
20/07:00pm 22.7 - 20.8 89 1.2 - - - - - - - -
20/06:30pm 23.0 - 20.7 87 1.5 - - - - - - - -
20/06:00pm 23.4 - 20.3 83 2.0 - - - - - - - -
20/05:30pm 23.8 - 19.7 78 2.6 - - - - - - - -
20/05:00pm 24.9 - 20.8 78 2.7 - - - - - - - -
20/04:30pm 25.0 - 20.3 75 3.1 - - - - - - - -
20/04:00pm 24.7 - 19.3 72 3.5 - - - - - - - -
20/03:30pm 25.4 - 19.8 71 3.6 - - - - - - - -
20/03:00pm 26.7 - 21.0 71 3.8 - - - - - - - 0.0
20/02:30pm 27.9 - 21.9 70 4.0 - - - - - - - -
20/02:00pm 26.0 - 19.6 68 4.2 - - - - - - - -
20/01:30pm 26.5 - 20.3 68 4.1 - - - - - - - -
20/01:00pm 28.5 - 22.0 68 4.4 - - - - - - - -
20/12:30pm 29.1 - 22.6 68 4.4 - - - - - - - -
20/12:00pm 27.8 - 21.1 67 4.5 - - - - - - - -
20/11:30am 26.9 - 22.1 75 3.2 - - - - - - - -
20/11:00am 27.6 - 21.6 70 4.0 - - - - - - - -
20/10:30am 25.3 - 20.8 76 3.0 - - - - - - - -
20/10:00am 27.9 - 22.8 74 3.5 - - - - - - - -
20/09:30am 25.5 - 22.0 81 2.3 - - - - - - - -
20/09:00am 25.1 - 21.6 81 2.3 - - - - - - - 39.0
20/08:30am 25.2 - 21.5 80 2.5 - - - - - - - -
20/08:00am 25.1 - 22.4 85 1.8 - - - - - - - -
20/07:30am 23.4 - 21.8 91 1.1 - - - - - - - -
20/07:00am 21.8 - 21.0 95 0.5 - - - - - - - -
20/06:30am 19.8 - 19.6 99 0.1 - - - - - - - -
20/06:00am 18.5 - 18.3 99 0.1 - - - - - - - -
20/05:30am 18.4 - 17.9 97 0.3 - - - - - - - -
20/05:00am 18.1 - 17.8 98 0.2 - - - - - - - -
20/04:30am 17.7 - 17.5 99 0.1 - - - - - - - -
20/04:00am 17.8 - 17.8 100 0.0 - - - - - - - -
20/03:30am 17.9 - 17.7 99 0.1 - - - - - - - -
20/03:00am 17.7 - 17.7 100 0.0 - - - - - - - 5.0
20/02:30am 17.4 - 17.4 100 0.0 - - - - - - - -
20/02:00am 17.4 - 17.4 100 0.0 - - - - - - - -
20/01:30am 17.6 - 17.6 100 0.0 - - - - - - - -
20/01:00am 17.7 - 17.7 100 0.0 - - - - - - - -
20/12:30am 17.8 - 17.8 100 0.0 - - - - - - - -
20/12:00am 17.9 - 17.9 100 0.0 - - - - - - - -
 
Date/Time
EST
Temp
°C
App
Temp
°C
Dew
Point
Rel
Hum
%
Delta-T
°C
Wind Press
QNH
hPa
Press
MSL
hPa
Rain
since 9 am
mm
Dir
 
Spd
km/h
Gust
km/h
Spd
kts
Gust
kts
19/11:30pm 18.0 - 18.0 100 0.0 - - - - - - - -
19/11:00pm 17.8 - 17.8 100 0.0 - - - - - - - -
19/10:30pm 17.8 - 17.8 100 0.0 - - - - - - - -
19/10:00pm 18.4 - 18.4 100 0.0 - - - - - - - -
19/09:30pm 18.5 - 18.5 100 0.0 - - - - - - - -
19/09:00pm 18.9 - 18.9 100 0.0 - - - - - - - 27.0
19/08:30pm 19.1 - 18.9 99 0.1 - - - - - - - -
19/08:00pm 20.5 - 20.5 100 0.0 - - - - - - - -
19/07:30pm 20.3 - 20.3 100 0.0 - - - - - - - -
19/07:00pm 20.2 - 20.2 100 0.0 - - - - - - - -
19/06:30pm 20.3 - 20.3 100 0.0 - - - - - - - -
19/06:00pm 20.9 - 20.9 100 0.0 - - - - - - - -
19/05:30pm 21.0 - 21.0 100 0.0 - - - - - - - -
19/05:00pm 21.0 - 21.0 100 0.0 - - - - - - - -
19/04:30pm 21.2 - 21.2 100 0.0 - - - - - - - -
19/04:00pm 20.9 - 20.9 100 0.0 - - - - - - - -
19/03:30pm 21.4 - 21.4 100 0.0 - - - - - - - -
19/03:00pm 22.2 - 22.2 100 0.0 - - - - - - - 8.0
19/02:30pm 22.9 - 22.7 99 0.1 - - - - - - - -
19/02:00pm 23.2 - 21.8 92 0.9 - - - - - - - -
19/01:30pm 25.4 - 21.3 78 2.7 - - - - - - - -
19/01:00pm 26.8 - 21.8 74 3.4 - - - - - - - -
19/12:30pm 27.3 - 22.7 76 3.1 - - - - - - - -
19/12:00pm 26.8 - 22.4 77 3.0 - - - - - - - -
19/11:30am 27.8 - 21.6 69 4.2 - - - - - - - -
19/11:00am 29.6 - 25.1 77 3.2 - - - - - - - -
19/10:30am 27.5 - 22.9 76 3.1 - - - - - - - -
19/10:00am 27.2 - 22.2 74 3.4 - - - - - - - -
19/09:30am 28.9 - 23.3 72 3.9 - - - - - - - -
19/09:00am 26.5 - 22.8 80 2.5 - - - - - - - 1.0
19/08:30am 25.5 - 23.2 87 1.6 - - - - - - - -
19/08:00am 24.8 - 22.9 89 1.3 - - - - - - - -
19/07:30am 24.0 - 22.6 92 0.9 - - - - - - - -
19/07:00am 23.1 - 22.4 96 0.5 - - - - - - - -
19/06:30am 22.5 - 22.5 100 0.0 - - - - - - - -
19/06:00am 22.0 - 22.0 100 0.0 - - - - - - - -
19/05:30am 21.6 - 21.6 100 0.0 - - - - - - - -
19/05:00am 21.5 - 21.5 100 0.0 - - - - - - - -
19/04:30am 21.4 - 21.4 100 0.0 - - - - - - - -
19/04:00am 21.4 - 21.4 100 0.0 - - - - - - - -
19/03:30am 21.4 - 21.4 100 0.0 - - - - - - - -
19/03:00am 21.5 - 21.5 100 0.0 - - - - - - - 0.0
19/02:30am 21.5 - 21.5 100 0.0 - - - - - - - -

Other Formats:

Comma delimited format used in spreadsheet applications
http://www.bom.gov.au/fwo/IDQ60801/IDQ60801.94558.axf

JavaScript Object Notation format (JSON) in row-major order
http://www.bom.gov.au/fwo/IDQ60801/IDQ60801.94558.json